This is the latest recevied weather packets stored in our database for station/object DK9HI-WX. If no packets are shown the sender has not sent any weather packets the latest 10 day(s).
| Time | Temp. | Humidity | Pressure | Rain* | Wind** | Luminosity | Snow |
|---|---|---|---|---|---|---|---|
| 1777047149 | 17.22° C | 57% | 1020.5 hPa | - | - | - | - |
| 1777046549 | 17.22° C | 59% | 1020.5 hPa | - | - | - | - |
| 1777045949 | 17.22° C | 58% | 1020.5 hPa | - | - | - | - |
| 1777045350 | 17.78° C | 57% | 1020.4 hPa | - | - | - | - |
| 1777044750 | 17.78° C | 57% | 1020.4 hPa | - | - | - | - |
| 1777044149 | 17.22° C | 58% | 1020.5 hPa | - | - | - | - |
| 1777043551 | 17.22° C | 57% | 1020.6 hPa | - | - | - | - |
| 1777042949 | 16.67° C | 58% | 1020.6 hPa | - | - | - | - |
| 1777042350 | 17.22° C | 57% | 1020.7 hPa | - | - | - | - |
| 1777041749 | 17.22° C | 57% | 1020.8 hPa | - | - | - | - |
| 1777041149 | 17.22° C | 58% | 1020.9 hPa | - | - | - | - |
| 1777040550 | 17.22° C | 57% | 1021.1 hPa | - | - | - | - |
| 1777039949 | 16.67° C | 58% | 1021.2 hPa | - | - | - | - |
| 1777039349 | 16.67° C | 60% | 1021.2 hPa | - | - | - | - |
| 1777038749 | 16.67° C | 61% | 1021.3 hPa | - | - | - | - |
| 1777038149 | 16.11° C | 63% | 1021.3 hPa | - | - | - | - |
| 1777037548 | 15.56° C | 63% | 1021.3 hPa | - | - | - | - |
| 1777036949 | 15.56° C | 63% | 1021.5 hPa | - | - | - | - |
| 1777036348 | 14.44° C | 67% | 1021.6 hPa | - | - | - | - |
| 1777035748 | 15° C | 66% | 1021.8 hPa | - | - | - | - |
| 1777035148 | 14.44° C | 67% | 1021.9 hPa | - | - | - | - |
| 1777034549 | 13.89° C | 69% | 1021.9 hPa | - | - | - | - |
| 1777033948 | 13.89° C | 68% | 1022 hPa | - | - | - | - |
| 1777033348 | 13.89° C | 66% | 1022.1 hPa | - | - | - | - |
| 1777032755 | 13.89° C | 66% | 1022.2 hPa | - | - | - | - |
* Rain since midnight (hover to see other rain measurements)
** Current wind speed in m/s (hover to see current wind gust speed)